Time;durP1;ratioP1;P1;durP2;ratioP2;P2;SDS_P1;SDS_P2;PMS_P1;PMS_P2;Temp;Humidity;BMP_temperature;BMP_pressure;BME280_temperature;BME280_humidity;BME280_pressure;Samples;Min_cycle;Max_cycle;Signal;HPM_P1;HPM_P2
2021/09/14 00:00:14;;;;;;;22.45;19.23;;;16.10;99.90;;;;;;4995795;28;20077;-83
2021/09/14 00:02:41;;;;;;;20.23;18.20;;;16.20;99.90;;;;;;4995528;28;20453;-82
2021/09/14 00:05:08;;;;;;;22.73;19.02;;;16.20;99.90;;;;;;4996705;28;20141;-83
2021/09/14 00:07:35;;;;;;;22.30;19.98;;;16.20;99.90;;;;;;4996714;28;20050;-82
2021/09/14 00:10:04;;;;;;;22.65;20.20;;;16.20;99.90;;;;;;4998465;28;20050;-84
2021/09/14 00:12:31;;;;;;;22.80;19.42;;;16.10;99.90;;;;;;4998383;28;20106;-83
2021/09/14 00:14:58;;;;;;;21.55;19.38;;;16.10;99.90;;;;;;4998140;28;20081;-84
2021/09/14 00:17:25;;;;;;;24.15;20.90;;;16.00;99.90;;;;;;4997744;28;20137;-83
2021/09/14 00:19:51;;;;;;;21.45;19.15;;;16.00;99.90;;;;;;4999143;28;20062;-84
2021/09/14 00:22:18;;;;;;;23.38;20.90;;;16.00;99.90;;;;;;4998919;28;20106;-82
2021/09/14 00:24:46;;;;;;;23.30;20.90;;;16.00;99.90;;;;;;5000366;28;20512;-81
2021/09/14 00:27:14;;;;;;;22.45;19.95;;;16.10;99.90;;;;;;4999872;28;20054;-83
2021/09/14 00:29:41;;;;;;;23.17;20.38;;;16.00;99.90;;;;;;5002506;28;20110;-82
2021/09/14 00:32:08;;;;;;;22.52;20.23;;;16.10;99.90;;;;;;5015127;28;20045;-82
2021/09/14 00:34:34;;;;;;;24.17;21.67;;;16.10;99.90;;;;;;5015628;28;20065;-82
2021/09/14 00:37:01;;;;;;;23.08;20.30;;;16.10;99.90;;;;;;5015094;28;20061;-82
2021/09/14 00:39:28;;;;;;;24.92;21.52;;;16.10;99.90;;;;;;5002728;28;20110;-83
2021/09/14 00:41:55;;;;;;;24.88;21.70;;;16.10;99.90;;;;;;4998988;28;20046;-82
2021/09/14 00:44:23;;;;;;;23.83;21.30;;;16.10;99.90;;;;;;4998461;28;20082;-82
2021/09/14 00:46:50;;;;;;;25.17;22.58;;;16.20;99.90;;;;;;4998681;28;20552;-82
2021/09/14 00:49:17;;;;;;;24.90;22.38;;;16.10;99.90;;;;;;5001318;28;20050;-81
2021/09/14 00:51:44;;;;;;;26.63;22.17;;;16.10;99.90;;;;;;5023206;23;20078;-74
2021/09/14 00:54:15;;;;;;;25.73;23.02;;;16.10;99.90;;;;;;4995526;28;20133;-74
2021/09/14 00:56:42;;;;;;;26.20;22.50;;;16.00;99.90;;;;;;4995569;28;20423;-76
2021/09/14 00:59:09;;;;;;;25.55;22.75;;;16.00;99.90;;;;;;4995776;28;20054;-76
2021/09/14 01:01:37;;;;;;;26.60;23.30;;;16.00;99.90;;;;;;4995041;28;20137;-73
2021/09/14 01:04:05;;;;;;;26.83;23.85;;;16.00;99.90;;;;;;4995389;28;20129;-76
2021/09/14 01:06:33;;;;;;;26.38;23.65;;;15.90;99.90;;;;;;4995382;28;20046;-76
2021/09/14 01:09:01;;;;;;;26.08;23.35;;;15.90;99.90;;;;;;4995176;28;20583;-77
2021/09/14 01:11:28;;;;;;;27.90;24.95;;;15.90;99.90;;;;;;4994570;28;20054;-78
2021/09/14 01:14:01;;;;;;;27.00;23.83;;;15.90;99.90;;;;;;4994738;28;20149;-77
2021/09/14 01:16:31;;;;;;;28.98;24.52;;;15.80;99.90;;;;;;4994586;28;20056;-77
2021/09/14 01:19:00;;;;;;;29.60;25.98;;;15.80;99.90;;;;;;4994602;28;20046;-79
2021/09/14 01:21:29;;;;;;;28.55;25.27;;;15.80;99.90;;;;;;4995048;28;20137;-76
2021/09/14 01:23:58;;;;;;;27.98;25.02;;;15.80;99.90;;;;;;4994790;28;20046;-76
2021/09/14 01:26:26;;;;;;;28.45;25.15;;;15.80;99.90;;;;;;4995181;28;20046;-76
2021/09/14 01:28:54;;;;;;;27.48;24.15;;;15.80;99.90;;;;;;4995089;28;20129;-76
2021/09/14 01:31:21;;;;;;;28.98;24.92;;;15.80;99.90;;;;;;4994700;28;20060;-76
2021/09/14 01:33:48;;;;;;;27.23;24.42;;;15.80;99.90;;;;;;4995125;28;20423;-75
2021/09/14 01:36:16;;;;;;;29.20;26.02;;;15.80;99.90;;;;;;4995425;28;20500;-74
2021/09/14 01:38:43;;;;;;;27.83;24.90;;;15.80;99.90;;;;;;4995432;28;20124;-79
2021/09/14 01:41:11;;;;;;;28.65;25.55;;;15.70;99.90;;;;;;4995102;28;20050;-77
2021/09/14 01:43:39;;;;;;;28.85;25.52;;;15.70;99.90;;;;;;4994791;28;20121;-76
2021/09/14 01:46:07;;;;;;;29.90;24.73;;;15.70;99.90;;;;;;4994322;28;20054;-77
2021/09/14 01:48:34;;;;;;;27.35;24.45;;;15.70;99.90;;;;;;4994346;28;20133;-77
2021/09/14 01:51:02;;;;;;;27.65;24.83;;;15.70;99.90;;;;;;4993999;28;20137;-77
2021/09/14 01:53:28;;;;;;;27.10;24.08;;;15.60;99.90;;;;;;4994368;28;20137;-77
2021/09/14 01:55:59;;;;;;;27.17;24.20;;;15.60;99.90;;;;;;4994295;28;20456;-76
2021/09/14 01:58:27;;;;;;;29.55;25.08;;;15.60;99.90;;;;;;4993449;28;20467;-77
2021/09/14 02:00:59;;;;;;;27.80;24.60;;;15.50;99.90;;;;;;4994247;28;20142;-77
2021/09/14 02:03:34;;;;;;;30.83;23.90;;;15.50;99.90;;;;;;4994395;28;20388;-77
2021/09/14 02:58:52;;;;;;;29.77;26.20;;;14.70;99.90;;;;;;4988731;28;20038;-76
2021/09/14 03:01:21;;;;;;;31.30;26.10;;;14.70;99.90;;;;;;4993011;28;20491;-77
2021/09/14 03:03:50;;;;;;;30.27;27.10;;;14.60;99.90;;;;;;4992775;28;20089;-76
2021/09/14 03:06:19;;;;;;;29.48;26.33;;;14.60;99.90;;;;;;4992906;28;20054;-78
2021/09/14 03:08:46;;;;;;;29.52;26.42;;;14.60;99.90;;;;;;4992592;28;20050;-76
2021/09/14 03:11:15;;;;;;;28.63;24.73;;;14.60;99.90;;;;;;4992311;28;20046;-77
2021/09/14 03:13:43;;;;;;;29.67;25.65;;;14.60;99.90;;;;;;4992802;28;20053;-77
2021/09/14 03:16:11;;;;;;;31.52;26.95;;;14.60;99.90;;;;;;4993038;28;20058;-76
2021/09/14 03:18:38;;;;;;;31.35;25.77;;;14.50;99.90;;;;;;4993237;28;20484;-76
2021/09/14 03:21:08;;;;;;;31.05;26.63;;;14.50;99.90;;;;;;4992770;28;20093;-76
2021/09/14 03:23:36;;;;;;;28.67;25.65;;;14.50;99.90;;;;;;4993099;28;20390;-77
2021/09/14 03:26:03;;;;;;;31.33;26.58;;;14.50;99.90;;;;;;4992889;28;20134;-77
2021/09/14 03:28:30;;;;;;;29.73;25.15;;;14.60;99.90;;;;;;4992355;28;20064;-78
2021/09/14 03:30:57;;;;;;;29.42;25.83;;;14.60;99.90;;;;;;4992632;28;20137;-74
2021/09/14 03:33:24;;;;;;;28.00;24.88;;;14.60;99.90;;;;;;4992764;28;20081;-77
2021/09/14 03:35:51;;;;;;;29.80;25.88;;;14.60;99.90;;;;;;4992803;28;20050;-77
2021/09/14 03:38:20;;;;;;;28.90;25.35;;;14.60;99.90;;;;;;4992522;28;20404;-79
2021/09/14 03:40:46;;;;;;;30.98;24.70;;;14.70;99.90;;;;;;4992504;28;20508;-79
2021/09/14 03:43:14;;;;;;;28.60;25.52;;;14.70;99.90;;;;;;4992424;28;20129;-77
2021/09/14 03:45:42;;;;;;;28.00;24.67;;;14.70;99.90;;;;;;4992162;28;20129;-76
2021/09/14 03:48:09;;;;;;;30.00;25.02;;;14.70;99.90;;;;;;4992596;28;20512;-77
2021/09/14 03:50:36;;;;;;;30.33;26.02;;;14.70;99.90;;;;;;4992010;28;20137;-77
2021/09/14 03:53:03;;;;;;;28.33;25.10;;;14.70;99.90;;;;;;4991901;28;20054;-77
2021/09/14 03:55:31;;;;;;;28.23;25.08;;;14.70;99.90;;;;;;4991903;28;20062;-77
2021/09/14 03:57:58;;;;;;;30.73;26.42;;;14.70;99.90;;;;;;4991742;28;20050;-77
2021/09/14 04:00:25;;;;;;;30.00;26.70;;;14.70;99.90;;;;;;4991955;28;20082;-77
2021/09/14 04:02:54;;;;;;;29.67;26.48;;;14.60;99.90;;;;;;4991644;28;20093;-77
2021/09/14 04:05:31;;;;;;;33.15;26.58;;;14.70;99.90;;;;;;4993459;28;20651;-77
2021/09/14 04:10:41;;;;;;;31.83;26.73;;;14.60;99.90;;;;;;4991616;28;20408;-76
2021/09/14 04:13:09;;;;;;;29.63;26.42;;;14.70;99.90;;;;;;4992042;28;20053;-76
2021/09/14 04:15:37;;;;;;;32.20;25.73;;;14.70;99.90;;;;;;4992077;28;20058;-78
2021/09/14 04:18:04;;;;;;;30.27;25.92;;;14.70;99.90;;;;;;4992391;28;20137;-77
2021/09/14 04:20:31;;;;;;;29.83;26.45;;;14.60;99.90;;;;;;4992219;28;20082;-77
2021/09/14 04:22:58;;;;;;;31.90;26.60;;;14.50;99.90;;;;;;4995043;28;20134;-77
2021/09/14 04:25:28;;;;;;;30.30;26.17;;;14.50;99.90;;;;;;4996374;28;20149;-76
2021/09/14 04:27:56;;;;;;;28.55;25.50;;;14.50;99.90;;;;;;4995869;28;20571;-78
2021/09/14 04:30:23;;;;;;;31.85;27.73;;;14.50;99.90;;;;;;4995639;28;20073;-78
2021/09/14 04:32:50;;;;;;;31.40;26.13;;;14.50;99.90;;;;;;4995589;28;20136;-77
2021/09/14 04:35:17;;;;;;;30.63;26.80;;;14.50;99.90;;;;;;4996226;28;20524;-77
2021/09/14 04:37:43;;;;;;;32.50;26.05;;;14.50;99.90;;;;;;4995762;28;20152;-76
2021/09/14 04:40:12;;;;;;;29.42;26.30;;;14.50;99.90;;;;;;4995556;28;20050;-77
2021/09/14 04:42:39;;;;;;;30.75;26.90;;;14.50;99.90;;;;;;4995712;28;20118;-76
2021/09/14 04:45:09;;;;;;;29.98;26.77;;;14.40;99.90;;;;;;4995623;28;20139;-79
2021/09/14 04:47:36;;;;;;;34.33;26.77;;;14.40;99.90;;;;;;4995600;28;20076;-78
2021/09/14 04:50:03;;;;;;;31.05;27.08;;;14.40;99.90;;;;;;4994836;28;20132;-76
2021/09/14 04:52:30;;;;;;;30.90;26.48;;;14.40;99.90;;;;;;4994928;28;20141;-77
2021/09/14 04:54:56;;;;;;;31.98;27.02;;;14.40;99.90;;;;;;4994805;28;20062;-77
2021/09/14 05:00:14;;;;;;;34.90;26.23;;;14.40;99.90;;;;;;4984503;28;20069;-74
2021/09/14 05:02:42;;;;;;;37.50;26.17;;;14.30;99.90;;;;;;4994723;28;20054;-77
2021/09/14 05:05:10;;;;;;;33.03;26.30;;;14.40;99.90;;;;;;4996172;28;20380;-80
2021/09/14 05:07:37;;;;;;;30.63;25.63;;;14.40;99.90;;;;;;4995571;28;20137;-78
2021/09/14 05:10:05;;;;;;;32.85;25.20;;;14.40;99.90;;;;;;4994865;28;20137;-76
2021/09/14 05:12:31;;;;;;;31.35;25.42;;;14.40;99.90;;;;;;4994987;28;20047;-76
2021/09/14 05:14:58;;;;;;;30.88;25.17;;;14.40;99.90;;;;;;4994571;28;20042;-76
2021/09/14 05:17:26;;;;;;;29.00;25.38;;;14.40;99.90;;;;;;4994719;28;20431;-78
2021/09/14 05:19:53;;;;;;;34.15;25.30;;;14.40;99.90;;;;;;4994327;28;20066;-77
2021/09/14 05:22:29;;;;;;;30.42;24.85;;;14.40;99.90;;;;;;4994557;28;20053;-77
2021/09/14 05:24:56;;;;;;;30.90;24.48;;;14.40;99.90;;;;;;4993263;28;20046;-76
2021/09/14 05:27:23;;;;;;;31.92;23.30;;;14.50;99.90;;;;;;4991639;28;20042;-76
2021/09/14 05:29:50;;;;;;;27.75;22.55;;;14.50;99.90;;;;;;4993440;28;20137;-77
2021/09/14 05:32:18;;;;;;;29.48;23.08;;;14.60;99.90;;;;;;4993607;28;20054;-76
2021/09/14 05:34:47;;;;;;;25.20;21.60;;;14.60;99.90;;;;;;4993179;28;20047;-76
2021/09/14 05:37:15;;;;;;;28.25;22.50;;;14.70;99.90;;;;;;4993331;28;20129;-79
2021/09/14 05:39:43;;;;;;;28.50;22.55;;;14.80;99.90;;;;;;4995547;28;20046;-79
2021/09/14 05:42:10;;;;;;;26.42;22.17;;;14.80;99.90;;;;;;4995204;28;20092;-76
2021/09/14 05:44:37;;;;;;;26.02;22.50;;;14.90;99.90;;;;;;4982240;28;20086;-77
2021/09/14 05:47:04;;;;;;;34.90;23.17;;;15.10;99.90;;;;;;4990044;28;20057;-77
2021/09/14 05:49:34;;;;;;;32.33;21.77;;;15.20;99.90;;;;;;4992951;28;20137;-80
2021/09/14 05:52:03;;;;;;;28.20;23.08;;;15.30;99.90;;;;;;4992682;28;20061;-77
2021/09/14 05:54:30;;;;;;;35.20;22.50;;;15.40;99.90;;;;;;4993833;28;20479;-77
2021/09/14 05:56:57;;;;;;;27.63;21.33;;;15.50;99.90;;;;;;4993452;28;20461;-76
2021/09/14 05:59:23;;;;;;;26.88;21.00;;;15.60;99.90;;;;;;4994157;28;20131;-78
2021/09/14 06:01:50;;;;;;;27.13;20.02;;;15.60;99.90;;;;;;4993665;28;20161;-76
2021/09/14 06:04:17;;;;;;;27.15;20.98;;;15.70;99.90;;;;;;4993005;28;20082;-79
2021/09/14 06:10:06;;;;;;;26.40;20.85;;;15.90;99.90;;;;;;4928141;29;20051;-77
2021/09/14 06:12:36;;;;;;;23.90;20.73;;;16.00;99.90;;;;;;4957396;28;20139;-76
2021/09/14 06:15:03;;;;;;;23.33;20.58;;;16.00;99.90;;;;;;4993649;28;20461;-77
2021/09/14 06:17:30;;;;;;;24.88;20.65;;;16.00;99.90;;;;;;4993408;28;20093;-76
2021/09/14 06:20:02;;;;;;;22.73;20.42;;;15.90;99.90;;;;;;4993508;28;20104;-77
2021/09/14 06:22:30;;;;;;;24.92;19.40;;;16.00;99.90;;;;;;4992715;28;20125;-78
2021/09/14 06:25:04;;;;;;;23.30;19.00;;;16.20;99.90;;;;;;4994278;28;20057;-78
2021/09/14 06:27:41;;;;;;;21.98;19.48;;;16.30;99.90;;;;;;4994350;28;20089;-77
2021/09/14 06:30:10;;;;;;;22.02;19.50;;;16.40;99.90;;;;;;4998148;28;20058;-77
2021/09/14 06:32:37;;;;;;;21.63;18.98;;;16.50;99.90;;;;;;4996239;28;20520;-76
2021/09/14 06:35:36;;;;;;;21.02;17.77;;;16.60;99.90;;;;;;4994361;28;20077;-77
2021/09/14 06:41:30;;;;;;;18.08;16.17;;;16.90;99.90;;;;;;4991796;28;20126;-78
2021/09/14 06:44:20;;;;;;;17.63;15.60;;;17.00;99.90;;;;;;4991838;28;20154;-77
2021/09/14 06:50:21;;;;;;;17.55;15.15;;;17.20;99.90;;;;;;4976119;28;20085;-78
2021/09/14 06:52:55;;;;;;;20.30;15.65;;;17.40;99.90;;;;;;5014692;23;20042;-83
2021/09/14 06:55:25;;;;;;;18.10;14.48;;;17.90;99.90;;;;;;5003168;28;20054;-82
2021/09/14 06:57:52;;;;;;;15.30;13.70;;;18.30;99.90;;;;;;5003288;28;20046;-81
2021/09/14 07:00:25;;;;;;;17.58;13.98;;;18.90;99.90;;;;;;5002513;28;20050;-83
2021/09/14 07:02:52;;;;;;;18.35;14.68;;;19.00;99.90;;;;;;4999795;28;20050;-84
2021/09/14 07:05:19;;;;;;;14.57;13.18;;;19.00;99.90;;;;;;5000104;28;20042;-83
2021/09/14 07:07:50;;;;;;;15.07;12.70;;;18.90;99.90;;;;;;5002043;28;20050;-82
2021/09/14 07:10:17;;;;;;;16.27;13.20;;;18.90;99.90;;;;;;5001365;28;20093;-83
2021/09/14 07:12:46;;;;;;;15.60;13.13;;;19.00;99.90;;;;;;5002611;28;20054;-83
2021/09/14 07:15:13;;;;;;;15.15;13.48;;;19.20;99.90;;;;;;5003660;28;20050;-82
2021/09/14 07:17:43;;;;;;;15.60;13.00;;;19.10;99.90;;;;;;5001733;28;20054;-84
2021/09/14 07:20:14;;;;;;;16.00;12.63;;;19.00;99.90;;;;;;5002884;28;20080;-84
2021/09/14 07:22:41;;;;;;;13.95;12.30;;;19.10;99.90;;;;;;5004097;28;20105;-83
2021/09/14 07:25:09;;;;;;;15.45;11.90;;;19.10;99.90;;;;;;5002889;28;20081;-84
2021/09/14 07:27:36;;;;;;;15.98;12.60;;;19.30;99.90;;;;;;5003884;28;20058;-83
2021/09/14 07:30:06;;;;;;;14.60;11.63;;;19.40;99.90;;;;;;5004456;28;20046;-83
2021/09/14 07:32:36;;;;;;;16.02;12.98;;;19.60;99.90;;;;;;5005809;28;20058;-82
2021/09/14 07:35:09;;;;;;;14.05;11.73;;;19.40;99.90;;;;;;5004582;28;20072;-83
2021/09/14 07:37:36;;;;;;;15.13;12.10;;;19.30;99.90;;;;;;5004867;28;20050;-83
2021/09/14 07:40:04;;;;;;;14.95;12.25;;;19.20;99.90;;;;;;5003924;28;20081;-83
2021/09/14 07:42:33;;;;;;;19.67;12.27;;;19.20;99.90;;;;;;4998577;28;20064;-85
2021/09/14 07:45:38;;;;;;;18.63;12.18;;;19.30;99.90;;;;;;4999174;28;20046;-82
2021/09/14 07:48:06;;;;;;;16.55;12.32;;;19.60;99.90;;;;;;4965662;28;20401;-82
2021/09/14 07:50:34;;;;;;;14.85;11.73;;;19.80;99.90;;;;;;4998411;28;20046;-82
2021/09/14 07:53:03;;;;;;;13.30;10.77;;;20.10;99.90;;;;;;5002167;28;20054;-83
2021/09/14 07:55:30;;;;;;;13.00;11.15;;;20.30;99.90;;;;;;5002070;28;20046;-83
2021/09/14 07:57:58;;;;;;;14.40;10.88;;;20.30;99.90;;;;;;5006165;28;20173;-82
2021/09/14 08:00:26;;;;;;;12.98;10.10;;;20.60;99.90;;;;;;5005972;28;20054;-82
2021/09/14 08:02:58;;;;;;;15.25;10.13;;;20.80;99.90;;;;;;5006475;28;20283;-82
2021/09/14 08:05:25;;;;;;;;;;;21.00;99.90;;;;;;5004206;28;20054;-82
2021/09/14 08:10:43;;;;;;;11.88;10.68;;;21.70;99.90;;;;;;5002571;28;20062;-83
2021/09/14 08:13:16;;;;;;;13.55;9.70;;;21.60;99.90;;;;;;5005278;28;20050;-84
2021/09/14 08:15:43;;;;;;;11.20;9.70;;;21.50;99.90;;;;;;5006212;28;20050;-82
2021/09/14 08:18:10;;;;;;;11.85;9.55;;;21.60;99.90;;;;;;5010194;28;20080;-82
2021/09/14 08:20:37;;;;;;;13.93;9.45;;;22.00;99.90;;;;;;5009668;28;20055;-85
2021/09/14 08:23:06;;;;;;;11.43;9.90;;;22.10;99.90;;;;;;5009269;28;20054;-84
2021/09/14 08:25:33;;;;;;;12.57;9.65;;;22.00;99.90;;;;;;5006921;28;20080;-84
2021/09/14 08:28:00;;;;;;;13.52;10.15;;;21.90;99.90;;;;;;5006034;28;20054;-84
2021/09/14 08:30:27;;;;;;;10.90;9.07;;;21.90;99.90;;;;;;5004921;28;20073;-84
2021/09/14 08:32:54;;;;;;;11.40;9.77;;;22.00;99.90;;;;;;5007783;28;20078;-84
2021/09/14 08:35:22;;;;;;;15.07;10.02;;;22.10;99.90;;;;;;5001477;28;20065;-83
2021/09/14 08:37:52;;;;;;;15.73;9.73;;;21.80;99.90;;;;;;5008139;28;20062;-83
2021/09/14 08:40:20;;;;;;;12.88;9.93;;;21.80;99.90;;;;;;5001036;28;20054;-81
2021/09/14 08:42:48;;;;;;;12.68;8.88;;;22.00;99.90;;;;;;5006589;28;20073;-84
2021/09/14 08:45:18;;;;;;;11.88;8.23;;;22.50;99.90;;;;;;5007860;28;21507;-83
2021/09/14 08:47:48;;;;;;;10.38;8.75;;;22.90;99.90;;;;;;5006386;28;20049;-83
2021/09/14 08:50:15;;;;;;;9.75;8.75;;;23.00;99.90;;;;;;5008645;28;20170;-84
2021/09/14 08:52:45;;;;;;;10.95;8.82;;;22.90;99.90;;;;;;5009620;28;20061;-84
2021/09/14 08:55:12;;;;;;;10.52;9.13;;;22.80;99.90;;;;;;5007609;28;20047;-83
2021/09/14 08:57:40;;;;;;;11.52;9.25;;;22.60;99.90;;;;;;5007321;28;20050;-83
2021/09/14 09:01:05;;;;;;;9.60;8.48;;;22.60;99.90;;;;;;5005841;28;20057;-82
2021/09/14 09:04:02;;;;;;;10.57;9.45;;;22.70;99.90;;;;;;4999284;28;20076;-82
2021/09/14 09:06:45;;;;;;;11.07;9.43;;;22.40;99.90;;;;;;4995216;28;20077;-84
2021/09/14 09:09:13;;;;;;;;;;;22.30;99.90;;;;;;5003917;28;20096;-83
2021/09/14 09:12:02;;;;;;;13.02;9.10;;;22.20;99.90;;;;;;5005818;28;19922;-83
2021/09/14 09:14:55;;;;;;;10.52;9.15;;;22.20;99.90;;;;;;4994286;28;20055;-83
2021/09/14 09:17:22;;;;;;;9.32;8.40;;;22.30;99.90;;;;;;5011733;28;20043;-83
2021/09/14 09:19:56;;;;;;;9.77;8.77;;;22.30;99.90;;;;;;5010367;28;20503;-84
2021/09/14 09:22:24;;;;;;;10.45;8.25;;;22.30;99.90;;;;;;5000980;28;20097;-84
2021/09/14 09:24:52;;;;;;;12.25;8.73;;;22.30;99.90;;;;;;5007521;28;20102;-84
2021/09/14 09:27:22;;;;;;;12.45;8.70;;;22.00;99.90;;;;;;5004471;28;20125;-85
2021/09/14 09:30:01;;;;;;;9.32;7.93;;;21.90;99.90;;;;;;5004183;28;20050;-85
2021/09/14 09:32:42;;;;;;;10.70;8.88;;;22.00;99.90;;;;;;5003364;28;20111;-84
2021/09/14 09:35:12;;;;;;;11.80;8.80;;;22.00;99.90;;;;;;5008170;28;20040;-85
2021/09/14 09:37:39;;;;;;;10.45;8.38;;;22.10;99.90;;;;;;5005254;28;20062;-84
2021/09/14 09:40:22;;;;;;;9.75;8.55;;;22.20;99.90;;;;;;5000361;28;20141;-83
2021/09/14 09:42:49;;;;;;;11.43;9.00;;;22.30;99.90;;;;;;4984867;28;20086;-83
2021/09/14 09:45:20;;;;;;;11.88;8.52;;;22.10;99.90;;;;;;5001071;28;20133;-83
2021/09/14 09:47:47;;;;;;;15.55;8.48;;;22.30;99.90;;;;;;5003895;28;20069;-83
2021/09/14 09:50:14;;;;;;;10.50;8.82;;;22.40;99.90;;;;;;5002900;28;20082;-83
2021/09/14 09:52:43;;;;;;;9.93;8.48;;;22.40;99.90;;;;;;5003263;28;20046;-83
2021/09/14 09:55:11;;;;;;;11.48;8.30;;;22.50;99.90;;;;;;5003019;28;20058;-83
2021/09/14 09:57:38;;;;;;;8.93;8.02;;;22.40;99.90;;;;;;5001576;28;20082;-82
2021/09/14 10:00:09;;;;;;;10.20;8.63;;;22.30;99.90;;;;;;5003125;28;20054;-84
2021/09/14 10:02:42;;;;;;;13.27;8.95;;;22.40;99.90;;;;;;5002330;28;20057;-83
2021/09/14 10:05:10;;;;;;;;;;;22.50;99.90;;;;;;5003696;28;20102;-83
2021/09/14 10:07:38;;;;;;;10.57;8.15;;;22.60;99.90;;;;;;5002663;28;19948;-82
2021/09/14 10:10:06;;;;;;;11.73;8.57;;;22.50;99.90;;;;;;5001409;28;20050;-82
2021/09/14 10:12:35;;;;;;;14.38;8.52;;;22.50;99.90;;;;;;5002637;28;20057;-84
2021/09/14 10:15:05;;;;;;;10.82;8.60;;;22.50;99.90;;;;;;5006023;28;20129;-83
2021/09/14 10:17:45;;;;;;;10.52;8.35;;;22.60;99.90;;;;;;5003323;28;20265;-83
2021/09/14 10:20:15;;;;;;;16.20;8.85;;;22.70;99.90;;;;;;5007014;28;20089;-84
2021/09/14 10:22:41;;;;;;;11.10;7.78;;;22.80;99.90;;;;;;5001098;28;20101;-84
2021/09/14 10:25:11;;;;;;;12.23;8.05;;;22.80;99.90;;;;;;4999470;28;20046;-86
2021/09/14 10:27:40;;;;;;;10.23;8.20;;;23.00;99.90;;;;;;4998665;28;20054;-85
2021/09/14 10:30:10;;;;;;;11.35;7.90;;;23.30;99.90;;;;;;4999321;28;20104;-84
2021/09/14 10:32:41;;;;;;;12.38;8.32;;;23.40;99.90;;;;;;5004452;28;20054;-84
2021/09/14 10:35:09;;;;;;;10.45;8.73;;;23.60;99.90;;;;;;5002238;28;20094;-85
2021/09/14 10:37:39;;;;;;;9.60;7.90;;;23.80;99.90;;;;;;5000164;28;20050;-84
2021/09/14 10:40:12;;;;;;;12.00;8.02;;;23.90;99.90;;;;;;5000872;28;20070;-85
2021/09/14 10:42:40;;;;;;;12.25;8.45;;;23.90;99.90;;;;;;5002100;28;20112;-85
2021/09/14 10:45:11;;;;;;;8.23;7.32;;;24.00;99.90;;;;;;4999637;28;20141;-84
2021/09/14 10:47:39;;;;;;;9.90;7.65;;;24.10;99.90;;;;;;5000205;28;20105;-84
2021/09/14 10:50:08;;;;;;;9.73;7.65;;;24.20;99.90;;;;;;4999952;28;20054;-85
2021/09/14 10:52:38;;;;;;;13.13;8.57;;;24.00;99.90;;;;;;5001706;28;20117;-84
2021/09/14 10:55:10;;;;;;;9.98;7.43;;;23.90;99.90;;;;;;5001649;28;20096;-85
2021/09/14 10:57:38;;;;;;;9.38;7.90;;;23.90;99.90;;;;;;5002746;28;20077;-85
2021/09/14 11:00:07;;;;;;;11.13;8.95;;;24.00;99.90;;;;;;5001738;28;20636;-84
2021/09/14 11:02:34;;;;;;;8.55;7.40;;;23.80;99.90;;;;;;5002238;28;20082;-84
2021/09/14 11:05:02;;;;;;;9.25;7.43;;;23.90;99.90;;;;;;5000618;28;20046;-84
2021/09/14 11:07:31;;;;;;;11.00;7.80;;;23.90;99.90;;;;;;5000479;28;20157;-82
2021/09/14 11:10:07;;;;;;;9.98;7.22;;;23.70;99.90;;;;;;4991076;28;20491;-81
2021/09/14 11:12:38;;;;;;;12.73;8.05;;;23.80;99.90;;;;;;4993875;28;20105;-81
2021/09/14 11:15:08;;;;;;;9.90;7.85;;;23.90;99.90;;;;;;4998971;28;20073;-83
2021/09/14 11:17:36;;;;;;;10.73;7.72;;;24.00;99.90;;;;;;4989570;28;20472;-84
2021/09/14 11:20:14;;;;;;;9.48;7.70;;;24.10;99.90;;;;;;4993495;28;20484;-85
2021/09/14 11:22:46;;;;;;;10.50;7.97;;;24.30;99.90;;;;;;5002202;28;20050;-84
2021/09/14 11:25:19;;;;;;;10.90;6.65;;;24.50;99.90;;;;;;5001981;28;20042;-83
2021/09/14 11:27:54;;;;;;;11.65;6.80;;;24.60;99.90;;;;;;5000839;28;20058;-84
2021/09/14 11:30:24;;;;;;;10.93;8.00;;;24.80;99.90;;;;;;5000671;28;20519;-84
2021/09/14 11:33:00;;;;;;;11.40;7.57;;;24.80;99.90;;;;;;5000291;28;20050;-84
2021/09/14 11:35:37;;;;;;;8.68;7.13;;;24.80;99.90;;;;;;5002755;28;20058;-80
2021/09/14 11:38:06;;;;;;;8.63;7.80;;;24.80;99.90;;;;;;5000964;28;20663;-79
2021/09/14 11:40:46;;;;;;;8.93;7.55;;;24.80;99.90;;;;;;5002133;28;20077;-81
2021/09/14 11:43:18;;;;;;;10.63;7.05;;;24.80;99.90;;;;;;5002410;28;20060;-85
2021/09/14 11:45:45;;;;;;;8.03;7.23;;;24.90;99.90;;;;;;5001189;28;20061;-83
2021/09/14 11:48:20;;;;;;;10.02;7.70;;;25.00;99.90;;;;;;5003546;28;20041;-84
2021/09/14 11:50:48;;;;;;;9.32;6.70;;;25.10;99.90;;;;;;5003050;28;20047;-84
2021/09/14 11:53:17;;;;;;;13.25;7.78;;;25.20;99.90;;;;;;5004108;28;20081;-84
2021/09/14 11:55:47;;;;;;;7.78;6.97;;;25.10;99.90;;;;;;5005373;28;20053;-84
2021/09/14 11:58:15;;;;;;;11.05;7.43;;;25.20;99.90;;;;;;5007541;28;20050;-85
2021/09/14 12:00:45;;;;;;;9.02;6.80;;;25.30;99.90;;;;;;5000353;28;20070;-85
2021/09/14 12:03:17;;;;;;;10.13;7.65;;;25.40;99.90;;;;;;5008669;28;20066;-85
2021/09/14 12:05:54;;;;;;;8.30;7.03;;;25.40;99.90;;;;;;5003093;28;20089;-82
2021/09/14 12:08:31;;;;;;;10.98;7.40;;;25.40;99.90;;;;;;5001844;28;20056;-84
2021/09/14 12:11:04;;;;;;;8.18;6.85;;;25.30;99.90;;;;;;5003709;28;20058;-84
2021/09/14 12:13:36;;;;;;;;;;;25.20;99.90;;;;;;5003611;28;20081;-81
2021/09/14 12:16:08;;;;;;;7.60;6.78;;;25.20;99.90;;;;;;4996023;28;19922;-82
2021/09/14 12:18:35;;;;;;;8.33;7.40;;;25.10;99.90;;;;;;5001046;28;20065;-83
2021/09/14 12:21:01;;;;;;;9.15;7.57;;;25.10;99.90;;;;;;5002397;28;20321;-83
2021/09/14 12:23:28;;;;;;;10.23;6.85;;;25.10;99.90;;;;;;5000949;28;20128;-82
2021/09/14 12:25:55;;;;;;;13.20;7.60;;;25.10;99.90;;;;;;4998475;28;20547;-83
2021/09/14 12:28:23;;;;;;;9.10;6.93;;;25.20;99.90;;;;;;5002227;28;20106;-83
2021/09/14 12:30:50;;;;;;;12.80;6.97;;;25.30;99.90;;;;;;5001385;28;20138;-84
2021/09/14 12:33:17;;;;;;;11.07;7.20;;;25.40;99.90;;;;;;5001703;28;20176;-84
2021/09/14 12:35:44;;;;;;;8.82;7.35;;;25.60;99.90;;;;;;5001057;28;20477;-84
2021/09/14 12:38:11;;;;;;;8.90;7.32;;;25.50;99.90;;;;;;5001871;28;20050;-84
2021/09/14 12:40:39;;;;;;;8.00;7.20;;;25.50;99.90;;;;;;5001156;28;20447;-84
2021/09/14 12:43:06;;;;;;;8.35;6.97;;;25.50;99.90;;;;;;5001229;28;20498;-84
2021/09/14 12:45:34;;;;;;;10.88;7.10;;;25.40;99.90;;;;;;4999164;28;20129;-84
2021/09/14 12:48:02;;;;;;;8.05;7.05;;;25.40;99.90;;;;;;5003772;28;20046;-84
2021/09/14 12:50:28;;;;;;;7.85;7.10;;;25.40;99.90;;;;;;5010808;28;20763;-84
2021/09/14 12:52:55;;;;;;;7.80;6.88;;;25.40;99.90;;;;;;5016202;28;20034;-82
2021/09/14 12:55:23;;;;;;;9.65;7.28;;;25.40;99.90;;;;;;5007209;28;20065;-83
2021/09/14 12:57:50;;;;;;;8.52;6.80;;;25.50;99.90;;;;;;5003781;28;20046;-83
2021/09/14 13:00:31;;;;;;;8.73;6.63;;;25.50;99.90;;;;;;5046470;23;20046;-76
2021/09/14 13:03:09;;;;;;;11.60;7.30;;;25.70;99.90;;;;;;4980687;28;20073;-78
2021/09/14 13:05:51;;;;;;;15.13;7.75;;;25.80;99.90;;;;;;4977454;28;20047;-77
2021/09/14 13:08:33;;;;;;;14.05;7.30;;;25.80;99.90;;;;;;4978877;28;20062;-79
2021/09/14 13:11:03;;;;;;;10.10;7.40;;;25.90;99.90;;;;;;4977951;28;20074;-78
2021/09/14 13:16:35;;;;;;;9.52;6.97;;;25.90;99.90;;;;;;4939540;28;20050;-79
2021/09/14 13:19:15;;;;;;;8.90;6.80;;;26.00;99.90;;;;;;4976872;28;20580;-79
2021/09/14 13:21:46;;;;;;;9.77;6.65;;;26.10;99.90;;;;;;4976568;28;20050;-79
2021/09/14 13:24:19;;;;;;;10.13;7.70;;;26.10;99.90;;;;;;4978344;28;20129;-80
2021/09/14 13:26:47;;;;;;;13.68;6.80;;;26.20;99.90;;;;;;4980609;28;20050;-79
2021/09/14 13:29:14;;;;;;;9.18;6.93;;;26.20;99.90;;;;;;4979373;28;20489;-79
2021/09/14 13:31:53;;;;;;;9.15;6.80;;;26.30;99.90;;;;;;4978612;28;20113;-79
2021/09/14 13:34:26;;;;;;;8.90;6.40;;;26.30;99.90;;;;;;4972939;28;20074;-80
2021/09/14 13:36:53;;;;;;;7.32;6.53;;;26.20;99.90;;;;;;4974897;28;20058;-78
2021/09/14 13:39:20;;;;;;;10.00;7.13;;;26.10;99.90;;;;;;4975722;28;20046;-79
2021/09/14 13:41:52;;;;;;;8.10;6.90;;;26.00;99.90;;;;;;4976788;28;20050;-77
2021/09/14 13:47:12;;;;;;;9.82;6.60;;;25.80;99.90;;;;;;4975517;28;20108;-78
2021/09/14 13:49:40;;;;;;;10.00;7.22;;;25.70;99.90;;;;;;4975537;28;20074;-78
2021/09/14 13:52:14;;;;;;;8.85;6.90;;;25.70;99.90;;;;;;4975094;28;20139;-79
2021/09/14 13:54:42;;;;;;;10.80;6.63;;;25.60;99.90;;;;;;4975117;28;20058;-78
2021/09/14 13:57:20;;;;;;;8.98;6.78;;;25.70;99.90;;;;;;4975514;28;20105;-79
2021/09/14 13:59:47;;;;;;;10.60;6.93;;;25.60;99.90;;;;;;4977212;28;20054;-78
2021/09/14 14:02:15;;;;;;;9.82;6.50;;;25.70;99.90;;;;;;4978704;28;20093;-80